Time;durP1;ratioP1;P1;durP2;ratioP2;P2;SDS_P1;SDS_P2;PMS_P1;PMS_P2;Temp;Humidity;BMP_temperature;BMP_pressure;BME280_temperature;BME280_humidity;BME280_pressure;Samples;Min_cycle;Max_cycle;Signal;HPM_P1;HPM_P2
2023/01/30 00:00:59;;;;;;;6.43;3.40;;;6.40;99.90;;;;;;5034314;28;20075;-78
2023/01/30 00:03:25;;;;;;;6.57;4.20;;;6.40;99.90;;;;;;5032092;28;20069;-77
2023/01/30 00:05:52;;;;;;;8.30;3.38;;;6.50;99.90;;;;;;5032654;28;20041;-79
2023/01/30 00:08:19;;;;;;;7.35;3.05;;;6.50;99.90;;;;;;5034122;28;20123;-80
2023/01/30 00:10:45;;;;;;;9.20;3.80;;;6.50;99.90;;;;;;5036937;28;20137;-79
2023/01/30 00:13:13;;;;;;;12.48;3.90;;;6.50;99.90;;;;;;5036974;28;20468;-79
2023/01/30 00:15:40;;;;;;;7.63;3.67;;;6.50;99.90;;;;;;5051865;28;20095;-79
2023/01/30 00:18:06;;;;;;;8.38;3.80;;;6.50;99.90;;;;;;5027790;28;20056;-78
2023/01/30 00:20:33;;;;;;;6.43;3.55;;;6.50;99.90;;;;;;5017923;28;20038;-79
2023/01/30 00:23:00;;;;;;;8.70;3.80;;;6.50;99.90;;;;;;4999782;28;20124;-77
2023/01/30 00:25:27;;;;;;;6.47;3.58;;;6.50;99.90;;;;;;5017713;28;20042;-79
2023/01/30 00:27:54;;;;;;;8.25;3.97;;;6.60;99.90;;;;;;5017664;28;20038;-79
2023/01/30 00:30:21;;;;;;;8.38;3.40;;;6.50;99.90;;;;;;5016648;28;20042;-79
2023/01/30 00:32:48;;;;;;;8.25;3.47;;;6.50;99.90;;;;;;5000329;28;20116;-77
2023/01/30 00:35:16;;;;;;;9.18;3.78;;;6.50;99.90;;;;;;4999930;28;20077;-77
2023/01/30 00:37:42;;;;;;;8.57;3.40;;;6.50;99.90;;;;;;4999378;28;20050;-77
2023/01/30 00:40:09;;;;;;;6.85;3.10;;;6.50;99.90;;;;;;4998052;28;20057;-77
2023/01/30 00:48:07;;;;;;;6.95;3.35;;;6.60;99.90;;;;;;5000170;28;20041;-79
2023/01/30 00:50:41;;;;;;;7.50;3.70;;;6.70;99.90;;;;;;4999170;28;20378;-79
2023/01/30 00:53:10;;;;;;;7.25;2.90;;;6.80;99.90;;;;;;5017321;28;20042;-78
2023/01/30 00:55:37;;;;;;;6.50;2.65;;;6.90;99.90;;;;;;4998563;28;20049;-79
2023/01/30 00:58:04;;;;;;;8.35;3.10;;;6.90;99.90;;;;;;5017208;28;20045;-79
2023/01/30 01:00:31;;;;;;;7.07;2.92;;;6.90;99.90;;;;;;5000060;28;20042;-79
2023/01/30 01:02:57;;;;;;;5.72;2.65;;;6.90;99.90;;;;;;4998788;28;20069;-78
2023/01/30 01:05:24;;;;;;;6.45;2.80;;;6.90;99.90;;;;;;5016756;28;20042;-78
2023/01/30 01:07:51;;;;;;;4.90;2.40;;;6.90;99.90;;;;;;4999883;28;20057;-78
2023/01/30 01:10:18;;;;;;;4.90;2.50;;;7.00;99.90;;;;;;4998603;28;20046;-77
2023/01/30 01:12:45;;;;;;;6.38;3.60;;;7.00;99.90;;;;;;4999716;28;20050;-77
2023/01/30 01:15:11;;;;;;;5.80;2.50;;;7.00;99.90;;;;;;5016415;28;20052;-77
2023/01/30 01:17:38;;;;;;;4.35;2.45;;;7.00;99.90;;;;;;5015740;28;20124;-76
2023/01/30 01:20:05;;;;;;;9.32;2.63;;;7.10;99.90;;;;;;5016542;28;20048;-79
2023/01/30 01:22:31;;;;;;;7.20;3.20;;;7.10;99.90;;;;;;5015772;28;20379;-79
2023/01/30 01:24:58;;;;;;;7.38;2.80;;;7.10;99.90;;;;;;5016256;28;20380;-78
2023/01/30 01:27:25;;;;;;;4.32;2.00;;;7.10;99.90;;;;;;4999738;28;20466;-79
2023/01/30 01:29:51;;;;;;;4.57;2.30;;;7.00;99.90;;;;;;4998606;28;20045;-79
2023/01/30 01:32:18;;;;;;;7.53;3.72;;;7.00;99.90;;;;;;5016781;28;20117;-77
2023/01/30 01:34:45;;;;;;;7.32;2.78;;;7.00;99.90;;;;;;4998769;28;20072;-79
2023/01/30 01:37:11;;;;;;;5.57;2.55;;;6.90;99.90;;;;;;5015499;28;20050;-77
2023/01/30 01:42:25;;;;;;;5.15;2.60;;;7.00;99.90;;;;;;4998047;28;20054;-79
2023/01/30 01:44:52;;;;;;;6.93;2.92;;;7.10;99.90;;;;;;5031440;28;20472;-77
2023/01/30 01:47:19;;;;;;;4.55;2.35;;;7.10;99.90;;;;;;4999311;28;20100;-77
2023/01/30 01:49:45;;;;;;;6.57;2.80;;;7.20;99.90;;;;;;4997923;28;20047;-78
2023/01/30 01:52:12;;;;;;;5.15;2.33;;;7.20;99.90;;;;;;4998798;28;20042;-77
2023/01/30 01:54:38;;;;;;;6.57;2.65;;;7.20;99.90;;;;;;5015646;28;20045;-79
2023/01/30 01:57:05;;;;;;;5.10;2.63;;;7.20;99.90;;;;;;5015001;28;20527;-77
2023/01/30 01:59:32;;;;;;;7.68;3.40;;;7.20;99.90;;;;;;4998771;28;20057;-79
2023/01/30 02:01:59;;;;;;;5.28;3.03;;;7.10;99.90;;;;;;4998879;28;20054;-77
2023/01/30 02:05:00;;;;;;;5.57;2.22;;;7.20;99.90;;;;;;4996997;28;20136;-78
2023/01/30 02:07:12;;;;;;;10.27;3.65;;;7.10;99.90;;;;;;5015839;28;20052;-79
2023/01/30 02:09:39;;;;;;;9.35;2.45;;;7.20;99.90;;;;;;4997498;28;20387;-77
2023/01/30 02:12:06;;;;;;;7.80;2.20;;;7.10;99.90;;;;;;5015847;28;20111;-78
2023/01/30 02:14:32;;;;;;;18.23;3.90;;;7.20;99.90;;;;;;4998101;28;20042;-80
2023/01/30 02:16:59;;;;;;;8.93;3.05;;;7.10;99.90;;;;;;4997053;28;20046;-78
2023/01/30 02:19:27;;;;;;;5.82;2.50;;;7.10;99.90;;;;;;4998672;28;20543;-78
2023/01/30 02:21:53;;;;;;;3.88;2.55;;;7.10;99.90;;;;;;5015643;28;20042;-79
2023/01/30 02:24:20;;;;;;;7.50;2.60;;;7.10;99.90;;;;;;4996897;28;20372;-78
2023/01/30 02:26:47;;;;;;;8.45;2.70;;;7.00;99.90;;;;;;4998362;28;20460;-78
2023/01/30 02:29:13;;;;;;;4.68;2.20;;;7.00;99.90;;;;;;4997014;28;20045;-78
2023/01/30 02:31:40;;;;;;;6.65;3.53;;;7.00;99.90;;;;;;4997381;28;20136;-79
2023/01/30 02:34:07;;;;;;;9.50;2.75;;;7.00;99.90;;;;;;4998253;28;20353;-76
2023/01/30 02:36:34;;;;;;;8.63;2.28;;;7.10;99.90;;;;;;4996942;28;20042;-78
2023/01/30 02:39:00;;;;;;;7.03;2.03;;;7.10;99.90;;;;;;4998000;28;20084;-77
2023/01/30 02:41:28;;;;;;;6.63;2.28;;;7.10;99.90;;;;;;4998103;28;20041;-79
2023/01/30 02:43:55;;;;;;;5.57;2.50;;;7.10;99.90;;;;;;4996624;28;20042;-79
2023/01/30 02:46:22;;;;;;;7.25;2.58;;;7.10;99.90;;;;;;4997999;28;20111;-78
2023/01/30 02:48:49;;;;;;;3.83;2.08;;;7.00;99.90;;;;;;4997793;28;20050;-77
2023/01/30 02:51:16;;;;;;;5.97;2.40;;;7.10;99.90;;;;;;5014568;28;20046;-78
2023/01/30 02:53:43;;;;;;;8.85;2.75;;;7.00;99.90;;;;;;5015128;28;20111;-77
2023/01/30 02:56:10;;;;;;;7.03;2.15;;;7.10;99.90;;;;;;5013541;28;20181;-79
2023/01/30 02:58:36;;;;;;;6.10;2.55;;;7.20;99.90;;;;;;4997675;28;20050;-79
2023/01/30 03:01:03;;;;;;;6.93;2.65;;;7.20;99.90;;;;;;4997651;28;20049;-79
2023/01/30 03:03:31;;;;;;;9.38;2.53;;;7.30;99.90;;;;;;4996541;28;20052;-77
2023/01/30 03:05:57;;;;;;;7.53;2.70;;;7.30;99.90;;;;;;4997275;28;20065;-78
2023/01/30 03:08:24;;;;;;;4.75;2.13;;;7.40;99.90;;;;;;4997623;28;20103;-78
2023/01/30 03:10:51;;;;;;;8.15;3.72;;;7.50;99.90;;;;;;4996423;28;20460;-78
2023/01/30 03:13:18;;;;;;;6.88;2.10;;;7.50;99.90;;;;;;4997426;28;20396;-79
2023/01/30 03:15:46;;;;;;;11.23;3.95;;;7.50;99.90;;;;;;4995954;28;20052;-78
2023/01/30 03:18:12;;;;;;;11.45;3.10;;;7.50;99.90;;;;;;5014678;28;20045;-77
2023/01/30 03:20:39;;;;;;;9.40;3.72;;;7.60;99.90;;;;;;4997584;28;20487;-78
2023/01/30 03:23:06;;;;;;;8.35;2.75;;;7.50;99.90;;;;;;4996340;28;20455;-77
2023/01/30 03:25:34;;;;;;;14.40;3.35;;;7.40;99.90;;;;;;4997068;28;20068;-78
2023/01/30 03:28:01;;;;;;;7.53;2.40;;;7.40;99.90;;;;;;4997131;28;20077;-80
2023/01/30 03:30:27;;;;;;;8.32;3.10;;;7.40;99.90;;;;;;4996328;28;20132;-78
2023/01/30 03:33:03;;;;;;;9.65;2.78;;;7.40;99.90;;;;;;4997630;28;20129;-79
2023/01/30 03:35:30;;;;;;;5.38;2.42;;;7.40;99.90;;;;;;4997144;28;20046;-79
2023/01/30 03:37:56;;;;;;;6.68;2.78;;;7.40;99.90;;;;;;4996742;28;20038;-78
2023/01/30 03:40:23;;;;;;;8.20;2.63;;;7.30;99.90;;;;;;4997178;28;20052;-79
2023/01/30 03:42:50;;;;;;;4.38;2.25;;;7.30;99.90;;;;;;4997852;28;20125;-79
2023/01/30 03:45:17;;;;;;;4.97;2.20;;;7.30;99.90;;;;;;5000808;28;20049;-77
2023/01/30 03:47:45;;;;;;;8.00;4.00;;;7.20;99.90;;;;;;5001213;28;20128;-79
2023/01/30 03:50:14;;;;;;;6.00;3.22;;;7.20;99.90;;;;;;5000003;28;20337;-79
2023/01/30 03:52:42;;;;;;;6.75;3.03;;;7.30;99.90;;;;;;5001007;28;20073;-77
2023/01/30 03:55:13;;;;;;;7.18;3.00;;;7.20;99.90;;;;;;5000547;28;20061;-79
2023/01/30 03:57:39;;;;;;;9.20;2.88;;;7.20;99.90;;;;;;4999980;28;20053;-79
2023/01/30 04:00:06;;;;;;;5.20;2.63;;;7.20;99.90;;;;;;5000933;28;20137;-80
2023/01/30 04:02:41;;;;;;;7.75;2.92;;;7.20;99.90;;;;;;5001412;28;20049;-78
2023/01/30 04:05:10;;;;;;;5.70;2.17;;;7.10;99.90;;;;;;5000420;28;20387;-77
2023/01/30 04:07:40;;;;;;;8.40;2.67;;;7.20;99.90;;;;;;5001051;28;20100;-78
2023/01/30 04:10:08;;;;;;;7.85;3.13;;;7.10;99.90;;;;;;4999792;28;20042;-77
2023/01/30 04:12:35;;;;;;;6.50;2.72;;;7.10;99.90;;;;;;5000853;28;20030;-79
2023/01/30 04:15:02;;;;;;;7.95;3.13;;;7.10;99.90;;;;;;5000236;28;20053;-79
2023/01/30 04:17:47;;;;;;;6.25;2.55;;;7.10;99.90;;;;;;5010522;28;20060;-78
2023/01/30 04:20:37;;;;;;;7.63;2.55;;;7.10;99.90;;;;;;5027194;28;20053;-78
2023/01/30 04:23:04;;;;;;;6.75;2.80;;;7.10;99.90;;;;;;5035685;28;20041;-77
2023/01/30 04:25:31;;;;;;;8.00;3.80;;;7.10;99.90;;;;;;5019908;28;20052;-79
2023/01/30 04:27:58;;;;;;;7.38;2.70;;;7.10;99.90;;;;;;5036466;28;20045;-77
2023/01/30 04:30:30;;;;;;;9.15;3.08;;;7.10;99.90;;;;;;5035345;28;20068;-78
2023/01/30 04:33:15;;;;;;;6.53;3.35;;;7.10;99.90;;;;;;5022573;28;20045;-79
2023/01/30 04:35:42;;;;;;;7.68;3.53;;;7.10;99.90;;;;;;5034927;28;20141;-78
2023/01/30 04:38:08;;;;;;;11.20;3.33;;;7.10;99.90;;;;;;5036596;28;20049;-78
2023/01/30 04:40:35;;;;;;;10.82;3.75;;;7.10;99.90;;;;;;5036389;28;20042;-79
2023/01/30 04:43:02;;;;;;;6.93;3.30;;;7.10;99.90;;;;;;5035169;28;20080;-78
2023/01/30 04:45:51;;;;;;;9.50;3.78;;;7.20;99.90;;;;;;5030625;28;20053;-79
2023/01/30 04:48:18;;;;;;;8.82;3.47;;;7.20;99.90;;;;;;5036191;28;20120;-78
2023/01/30 04:50:45;;;;;;;13.05;4.45;;;7.20;99.90;;;;;;5018756;28;20383;-78
2023/01/30 04:53:11;;;;;;;9.50;3.17;;;7.20;99.90;;;;;;5036009;28;20136;-78
2023/01/30 04:55:38;;;;;;;7.65;3.50;;;7.30;99.90;;;;;;5033880;28;20046;-77
2023/01/30 04:58:05;;;;;;;6.63;3.72;;;7.30;99.90;;;;;;5036064;28;20140;-78
2023/01/30 05:00:31;;;;;;;9.25;3.67;;;7.30;99.90;;;;;;5036110;28;20042;-76
2023/01/30 05:02:59;;;;;;;6.00;3.60;;;7.30;99.90;;;;;;5035964;28;20564;-80
2023/01/30 05:05:26;;;;;;;8.00;2.72;;;7.30;99.90;;;;;;5036478;28;20057;-78
2023/01/30 05:07:53;;;;;;;8.75;4.20;;;7.20;99.90;;;;;;5035998;28;20404;-78
2023/01/30 05:10:19;;;;;;;7.78;3.50;;;7.20;99.90;;;;;;5035713;28;20045;-77
2023/01/30 05:12:46;;;;;;;5.13;2.75;;;7.20;99.90;;;;;;5036646;28;20485;-77
2023/01/30 05:15:12;;;;;;;7.47;3.55;;;7.20;99.90;;;;;;5036341;28;20052;-78
2023/01/30 05:17:39;;;;;;;9.13;3.22;;;7.10;99.90;;;;;;5029385;28;20085;-79
2023/01/30 05:20:09;;;;;;;11.15;3.55;;;7.00;99.90;;;;;;5016819;28;20069;-77
2023/01/30 05:22:35;;;;;;;6.95;2.92;;;7.00;99.90;;;;;;5015614;28;20410;-76
2023/01/30 05:25:02;;;;;;;8.95;2.83;;;7.10;99.90;;;;;;5000199;28;20041;-77
2023/01/30 05:27:28;;;;;;;6.32;3.65;;;7.00;99.90;;;;;;4999377;28;20046;-79
2023/01/30 05:29:55;;;;;;;5.60;2.85;;;7.00;99.90;;;;;;5015550;28;20061;-76
2023/01/30 05:32:22;;;;;;;5.75;2.65;;;7.00;99.90;;;;;;5016629;28;20049;-77
2023/01/30 05:34:48;;;;;;;10.07;4.43;;;7.00;99.90;;;;;;5016053;28;20341;-78
2023/01/30 05:37:15;;;;;;;6.55;3.42;;;6.90;99.90;;;;;;5015461;28;20353;-79
2023/01/30 05:39:42;;;;;;;9.18;3.15;;;6.90;99.90;;;;;;5016426;28;20038;-78
2023/01/30 05:42:09;;;;;;;14.85;4.20;;;6.90;99.90;;;;;;4999391;28;20384;-77
2023/01/30 05:44:35;;;;;;;8.60;3.00;;;6.90;99.90;;;;;;5014980;28;20042;-78
2023/01/30 05:47:02;;;;;;;5.97;3.58;;;6.80;99.90;;;;;;4998977;28;20395;-78
2023/01/30 05:49:29;;;;;;;9.43;3.30;;;6.70;99.90;;;;;;5015155;28;20069;-78
2023/01/30 05:51:55;;;;;;;8.48;3.40;;;6.70;99.90;;;;;;4998898;28;20049;-79
2023/01/30 05:54:22;;;;;;;9.95;3.95;;;6.70;99.90;;;;;;5015899;28;20046;-79
2023/01/30 05:56:49;;;;;;;9.70;3.13;;;6.70;99.90;;;;;;4997951;28;20037;-77
2023/01/30 05:59:17;;;;;;;7.05;3.00;;;6.60;99.90;;;;;;5015925;28;20060;-79
2023/01/30 06:01:43;;;;;;;10.43;3.90;;;6.60;99.90;;;;;;5015993;28;20121;-77
2023/01/30 06:04:10;;;;;;;5.32;3.03;;;6.50;99.90;;;;;;4997273;28;20125;-78
2023/01/30 06:06:37;;;;;;;9.38;3.92;;;6.50;99.90;;;;;;5015185;28;20045;-78
2023/01/30 06:09:03;;;;;;;6.90;4.07;;;6.50;99.90;;;;;;5014853;28;20080;-79
2023/01/30 06:11:30;;;;;;;7.10;3.65;;;6.40;99.90;;;;;;4998475;28;20472;-78
2023/01/30 06:13:57;;;;;;;5.95;3.20;;;6.40;99.90;;;;;;4998466;28;20042;-79
2023/01/30 06:16:23;;;;;;;6.80;3.25;;;6.40;99.90;;;;;;5014662;28;20044;-78
2023/01/30 06:18:50;;;;;;;15.40;4.65;;;6.50;99.90;;;;;;5015500;28;20116;-77
2023/01/30 06:21:17;;;;;;;10.43;3.55;;;6.60;99.90;;;;;;4998821;28;20046;-78
2023/01/30 06:23:43;;;;;;;6.82;3.45;;;6.70;99.90;;;;;;5014329;28;20064;-79
2023/01/30 06:26:10;;;;;;;7.75;4.00;;;6.70;99.90;;;;;;5015792;28;20068;-78
2023/01/30 06:28:37;;;;;;;8.55;3.17;;;6.80;99.90;;;;;;5015478;28;20061;-78
2023/01/30 06:31:03;;;;;;;5.63;2.78;;;6.90;99.90;;;;;;5014335;28;20052;-77
2023/01/30 06:33:30;;;;;;;8.40;3.15;;;7.10;99.90;;;;;;4997673;28;20069;-79
2023/01/30 06:35:57;;;;;;;7.45;3.20;;;7.20;99.90;;;;;;5014717;28;20144;-77
2023/01/30 06:38:23;;;;;;;5.63;2.70;;;7.30;99.90;;;;;;4998035;28;20100;-79
2023/01/30 06:40:51;;;;;;;5.13;3.00;;;7.30;99.90;;;;;;4998039;28;20041;-79
2023/01/30 06:43:18;;;;;;;9.90;3.25;;;7.40;99.90;;;;;;5014246;28;20057;-76
2023/01/30 06:45:45;;;;;;;12.68;4.93;;;7.50;99.90;;;;;;4997520;28;20046;-77
2023/01/30 06:48:11;;;;;;;10.32;4.32;;;7.50;99.90;;;;;;5015246;28;20376;-79
2023/01/30 06:50:38;;;;;;;8.23;3.97;;;7.50;99.90;;;;;;5014305;28;20049;-77
2023/01/30 06:53:05;;;;;;;12.52;3.85;;;7.60;99.90;;;;;;5015138;28;20045;-77
2023/01/30 06:55:35;;;;;;;6.70;3.50;;;7.50;99.90;;;;;;4997087;28;20479;-78
2023/01/30 06:58:02;;;;;;;8.00;4.25;;;7.50;99.90;;;;;;5007976;28;20049;-77
2023/01/30 07:00:29;;;;;;;10.02;5.68;;;7.40;99.90;;;;;;4998680;28;20046;-78
2023/01/30 07:02:56;;;;;;;8.23;4.20;;;7.20;99.90;;;;;;4996728;28;20046;-77
2023/01/30 07:05:22;;;;;;;7.65;4.40;;;7.00;99.90;;;;;;5014558;28;20038;-77
2023/01/30 07:07:49;;;;;;;7.53;4.28;;;7.00;99.90;;;;;;5014878;28;20052;-79
2023/01/30 07:10:16;;;;;;;7.53;4.70;;;7.00;99.90;;;;;;4996617;28;20045;-77
2023/01/30 07:12:42;;;;;;;8.38;3.92;;;7.00;99.90;;;;;;4997709;28;20042;-77
2023/01/30 07:15:09;;;;;;;7.88;3.45;;;7.10;99.90;;;;;;4997212;28;20049;-78
2023/01/30 07:17:36;;;;;;;6.93;3.88;;;7.10;99.90;;;;;;5013274;28;20060;-79
2023/01/30 07:20:02;;;;;;;11.80;3.72;;;7.10;99.90;;;;;;4997556;28;20111;-78
2023/01/30 07:22:29;;;;;;;8.38;4.18;;;7.10;99.90;;;;;;4996166;28;20056;-79
2023/01/30 07:24:56;;;;;;;16.00;6.22;;;7.20;99.90;;;;;;5014761;28;20034;-77
2023/01/30 07:27:22;;;;;;;9.40;3.33;;;7.20;99.90;;;;;;5014426;28;20046;-78
2023/01/30 07:29:49;;;;;;;14.65;5.10;;;7.20;99.90;;;;;;4985599;28;20049;-80
2023/01/30 07:32:18;;;;;;;9.60;3.90;;;7.10;99.90;;;;;;4997165;28;20050;-79
2023/01/30 07:34:45;;;;;;;12.98;4.32;;;6.90;99.90;;;;;;5013699;28;20063;-80
2023/01/30 07:37:11;;;;;;;5.35;3.65;;;6.80;99.90;;;;;;4988274;28;20096;-77
2023/01/30 07:39:38;;;;;;;6.95;3.58;;;6.70;99.90;;;;;;5006622;28;20038;-81
2023/01/30 07:42:05;;;;;;;11.95;4.20;;;6.60;99.90;;;;;;4996977;28;20146;-79
2023/01/30 07:44:33;;;;;;;8.77;3.45;;;6.50;99.90;;;;;;4995441;28;20380;-78
2023/01/30 07:46:59;;;;;;;11.55;3.80;;;6.40;99.90;;;;;;4997109;28;20042;-78
2023/01/30 07:49:26;;;;;;;7.32;2.88;;;6.40;99.90;;;;;;4996030;28;20088;-78
2023/01/30 07:51:53;;;;;;;12.77;3.20;;;6.40;99.90;;;;;;4980878;28;20049;-78
2023/01/30 07:54:19;;;;;;;7.80;3.25;;;6.30;99.90;;;;;;4996563;28;20041;-79
2023/01/30 07:56:46;;;;;;;8.15;3.20;;;6.20;99.90;;;;;;4996204;28;20042;-79
2023/01/30 07:59:13;;;;;;;8.15;3.13;;;6.20;99.90;;;;;;5014414;28;20037;-79
2023/01/30 08:01:39;;;;;;;8.98;3.75;;;6.10;99.90;;;;;;5009248;28;20057;-78
2023/01/30 08:04:06;;;;;;;8.27;2.97;;;6.10;99.90;;;;;;5002839;28;20038;-78
2023/01/30 08:06:37;;;;;;;10.90;3.00;;;6.20;99.90;;;;;;5013658;28;20054;-77
2023/01/30 08:09:04;;;;;;;7.60;2.85;;;6.20;99.90;;;;;;4998782;28;20042;-76
2023/01/30 08:11:31;;;;;;;9.52;3.47;;;6.30;99.90;;;;;;4994486;28;20062;-77
2023/01/30 08:13:57;;;;;;;8.13;2.75;;;6.40;99.90;;;;;;4975714;28;20350;-78
2023/01/30 08:16:24;;;;;;;11.75;2.80;;;6.40;99.90;;;;;;5013134;28;20057;-78
2023/01/30 08:18:51;;;;;;;9.18;4.07;;;6.50;99.90;;;;;;5002260;28;20117;-79
2023/01/30 08:21:17;;;;;;;12.02;2.72;;;6.60;99.90;;;;;;5029744;28;20046;-78
2023/01/30 08:23:45;;;;;;;13.60;2.88;;;6.60;99.90;;;;;;5013493;28;20049;-80
2023/01/30 08:26:12;;;;;;;10.20;2.55;;;6.60;99.90;;;;;;5029798;28;20133;-79
2023/01/30 08:28:39;;;;;;;11.60;3.47;;;6.60;99.90;;;;;;5014282;28;20523;-79
2023/01/30 08:31:06;;;;;;;13.68;3.30;;;6.60;99.90;;;;;;5016469;28;20116;-78
2023/01/30 08:33:33;;;;;;;9.57;2.83;;;6.60;99.90;;;;;;5032958;28;20084;-79
2023/01/30 08:35:59;;;;;;;9.68;2.42;;;6.60;99.90;;;;;;5035766;28;20044;-82
2023/01/30 08:38:26;;;;;;;9.98;2.78;;;6.60;99.90;;;;;;5036645;28;20042;-79
2023/01/30 08:40:53;;;;;;;16.05;3.35;;;6.60;99.90;;;;;;5031816;28;20064;-80
2023/01/30 08:43:20;;;;;;;10.57;2.90;;;6.50;99.90;;;;;;5034860;28;20041;-81
2023/01/30 08:45:46;;;;;;;8.68;2.97;;;6.50;99.90;;;;;;5052929;28;20048;-80
2023/01/30 08:48:13;;;;;;;8.63;2.70;;;6.60;99.90;;;;;;5037255;28;20456;-83
2023/01/30 08:50:39;;;;;;;8.02;2.95;;;6.50;99.90;;;;;;5035390;28;20123;-80
2023/01/30 08:53:06;;;;;;;14.35;3.75;;;6.60;99.90;;;;;;5037047;28;20048;-81
2023/01/30 08:55:33;;;;;;;10.65;2.70;;;6.60;99.90;;;;;;5051998;28;20045;-79
2023/01/30 08:58:00;;;;;;;9.23;2.85;;;6.60;99.90;;;;;;5052654;28;20064;-80
2023/01/30 09:00:26;;;;;;;9.75;2.65;;;6.60;99.90;;;;;;5036878;28;20029;-78
2023/01/30 09:02:53;;;;;;;11.25;2.55;;;6.60;99.90;;;;;;5035830;28;20033;-80
2023/01/30 09:05:20;;;;;;;9.02;2.92;;;6.60;99.90;;;;;;5036274;28;20387;-79
2023/01/30 09:07:46;;;;;;;11.55;2.50;;;6.70;99.90;;;;;;5035886;28;20053;-78
2023/01/30 09:10:13;;;;;;;9.15;2.45;;;6.80;99.90;;;;;;5036003;28;20464;-79
2023/01/30 09:12:40;;;;;;;9.85;3.70;;;6.90;99.90;;;;;;5036587;28;20132;-80
2023/01/30 09:15:07;;;;;;;10.23;3.25;;;7.00;99.90;;;;;;5034895;28;20475;-80
2023/01/30 09:17:33;;;;;;;11.88;2.85;;;7.00;99.90;;;;;;5029850;28;20046;-80
2023/01/30 09:20:00;;;;;;;7.70;2.95;;;7.10;99.90;;;;;;5016532;28;20034;-82
2023/01/30 09:22:26;;;;;;;8.30;3.28;;;7.10;99.90;;;;;;5015441;28;20101;-78
2023/01/30 09:24:54;;;;;;;9.75;3.35;;;7.20;99.90;;;;;;5016201;28;20057;-79
2023/01/30 09:27:21;;;;;;;9.90;4.45;;;7.20;99.90;;;;;;5016338;28;20073;-80
2023/01/30 09:29:47;;;;;;;13.07;3.47;;;7.20;99.90;;;;;;5015482;28;20092;-78
2023/01/30 09:32:14;;;;;;;12.55;4.07;;;7.20;99.90;;;;;;5016452;28;20050;-80
2023/01/30 09:34:41;;;;;;;12.43;3.42;;;7.20;99.90;;;;;;5015929;28;20464;-79
2023/01/30 09:37:07;;;;;;;13.43;4.07;;;7.30;99.90;;;;;;4998056;28;20046;-79
2023/01/30 09:39:34;;;;;;;12.05;3.83;;;7.30;99.90;;;;;;5016113;28;20345;-79
2023/01/30 09:42:02;;;;;;;13.40;3.83;;;7.30;99.90;;;;;;5016087;28;20042;-80
2023/01/30 09:44:30;;;;;;;9.73;2.70;;;7.30;99.90;;;;;;4997633;28;20376;-80
2023/01/30 09:46:59;;;;;;;10.10;2.85;;;7.30;99.90;;;;;;4982749;28;20046;-79
2023/01/30 09:49:26;;;;;;;;;;;7.30;99.90;;;;;;5015454;28;20050;-79
2023/01/30 09:51:53;;;;;;;11.73;2.80;;;7.30;99.90;;;;;;5015849;28;19963;-78
2023/01/30 09:54:21;;;;;;;11.05;3.80;;;7.30;99.90;;;;;;4998220;28;20077;-80
2023/01/30 09:56:47;;;;;;;10.55;2.90;;;7.40;99.90;;;;;;5014975;28;20042;-80
2023/01/30 09:59:14;;;;;;;9.15;3.35;;;7.40;99.90;;;;;;4998810;28;20049;-83
2023/01/30 10:01:40;;;;;;;11.18;3.45;;;7.50;99.90;;;;;;4998661;28;20041;-81
2023/01/30 10:04:07;;;;;;;9.88;2.72;;;7.50;99.90;;;;;;4996985;28;20060;-82
2023/01/30 10:06:34;;;;;;;11.50;3.47;;;7.70;99.90;;;;;;5015965;28;20157;-80
2023/01/30 10:09:00;;;;;;;12.10;2.58;;;7.70;99.90;;;;;;5014785;28;20049;-81
2023/01/30 10:11:27;;;;;;;15.35;4.15;;;7.70;99.90;;;;;;5015791;28;20050;-82
2023/01/30 10:13:54;;;;;;;11.05;3.67;;;7.80;99.90;;;;;;4997233;28;20050;-79
2023/01/30 10:16:20;;;;;;;13.77;3.17;;;7.90;99.90;;;;;;4996913;28;20108;-80
2023/01/30 10:18:47;;;;;;;8.85;3.08;;;7.90;99.90;;;;;;5015412;28;20049;-82
2023/01/30 10:21:14;;;;;;;14.40;3.83;;;8.00;99.90;;;;;;5015384;28;20165;-79
2023/01/30 10:23:40;;;;;;;10.90;3.30;;;8.20;99.90;;;;;;4996910;28;20519;-81
2023/01/30 10:26:07;;;;;;;12.20;3.45;;;8.10;99.90;;;;;;4983142;28;20409;-79
2023/01/30 10:28:33;;;;;;;11.07;2.72;;;8.20;99.90;;;;;;4997230;28;20063;-80
2023/01/30 10:31:00;;;;;;;13.15;3.10;;;8.30;99.90;;;;;;4997252;28;20472;-81
2023/01/30 10:33:27;;;;;;;13.90;3.22;;;8.40;99.90;;;;;;4998216;28;20088;-82
2023/01/30 10:35:54;;;;;;;10.77;3.15;;;8.40;99.90;;;;;;5014803;28;20045;-81
2023/01/30 10:38:20;;;;;;;9.52;3.05;;;8.50;99.90;;;;;;5015416;28;20128;-79
2023/01/30 10:40:47;;;;;;;21.63;6.10;;;8.60;99.90;;;;;;5015116;28;20060;-81
2023/01/30 10:43:14;;;;;;;14.88;3.58;;;8.70;99.90;;;;;;5014358;28;20065;-81
2023/01/30 10:45:40;;;;;;;10.52;3.35;;;8.90;99.90;;;;;;5015549;28;20072;-81
2023/01/30 10:48:09;;;;;;;11.70;3.03;;;9.10;99.90;;;;;;5011475;28;20045;-80
2023/01/30 10:50:36;;;;;;;12.90;3.20;;;9.20;99.90;;;;;;4997225;28;20133;-81
2023/01/30 10:53:03;;;;;;;6.68;2.80;;;9.20;99.90;;;;;;4981382;28;20485;-84
2023/01/30 10:55:29;;;;;;;14.18;4.22;;;9.30;99.90;;;;;;5015102;28;20034;-84
2023/01/30 10:58:03;;;;;;;10.52;2.85;;;9.50;99.90;;;;;;5014944;28;20107;-84
2023/01/30 11:00:30;;;;;;;11.45;3.30;;;9.80;99.90;;;;;;5015113;28;20065;-83
2023/01/30 11:02:58;;;;;;;10.32;3.53;;;9.90;99.90;;;;;;4997099;28;20057;-83
2023/01/30 11:05:25;;;;;;;9.77;3.33;;;10.00;99.90;;;;;;4997471;28;20042;-82
2023/01/30 11:07:52;;;;;;;6.63;2.40;;;10.00;99.90;;;;;;4997574;28;20383;-83
2023/01/30 11:10:18;;;;;;;7.75;3.22;;;10.10;99.90;;;;;;4996197;28;20054;-85
2023/01/30 11:12:45;;;;;;;9.95;3.38;;;10.10;99.90;;;;;;5014700;28;20050;-82
2023/01/30 11:15:12;;;;;;;14.35;3.63;;;10.10;99.90;;;;;;4981075;28;20104;-83
2023/01/30 11:17:40;;;;;;;12.88;4.13;;;10.00;99.90;;;;;;5004722;28;20048;-81
2023/01/30 11:20:07;;;;;;;12.93;3.38;;;10.00;99.90;;;;;;5033775;28;20056;-84
2023/01/30 11:22:34;;;;;;;18.98;5.07;;;9.70;99.90;;;;;;5033627;28;20065;-83
2023/01/30 11:25:03;;;;;;;10.45;3.80;;;9.50;99.90;;;;;;5016360;28;20050;-84
2023/01/30 11:27:29;;;;;;;9.45;2.85;;;9.30;99.90;;;;;;5034516;28;20124;-84
2023/01/30 11:29:56;;;;;;;11.73;3.15;;;9.30;99.90;;;;;;5032578;28;20056;-82
2023/01/30 11:32:23;;;;;;;10.85;2.95;;;9.20;99.90;;;;;;5034001;28;20175;-82
2023/01/30 11:34:51;;;;;;;13.23;3.95;;;9.20;99.90;;;;;;5033239;28;20041;-82
2023/01/30 11:37:17;;;;;;;11.93;3.03;;;9.20;99.90;;;;;;5033553;28;20080;-83
2023/01/30 11:39:44;;;;;;;8.27;2.75;;;9.10;99.90;;;;;;5032788;28;20045;-82
2023/01/30 11:42:11;;;;;;;7.70;2.45;;;9.00;99.90;;;;;;5033323;28;20068;-82
2023/01/30 11:44:37;;;;;;;11.02;4.20;;;8.80;99.90;;;;;;5032505;28;20379;-83
2023/01/30 11:47:04;;;;;;;11.50;3.42;;;8.70;99.90;;;;;;5032813;28;20056;-83
2023/01/30 11:49:31;;;;;;;11.27;2.92;;;8.60;99.90;;;;;;5033564;28;20049;-82
2023/01/30 11:52:17;;;;;;;11.93;3.22;;;8.60;99.90;;;;;;5034276;28;20053;-82
2023/01/30 11:54:46;;;;;;;13.93;3.17;;;8.60;99.90;;;;;;5033534;28;20383;-80
2023/01/30 11:57:13;;;;;;;10.50;3.10;;;8.60;99.90;;;;;;5032444;28;20111;-81
2023/01/30 11:59:40;;;;;;;11.07;3.05;;;8.60;99.90;;;;;;5033493;28;20041;-84
2023/01/30 12:02:06;;;;;;;9.20;3.17;;;8.70;99.90;;;;;;5033041;28;20056;-82
2023/01/30 12:04:33;;;;;;;12.05;3.40;;;8.80;99.90;;;;;;5032671;28;20073;-81
2023/01/30 12:07:00;;;;;;;11.82;3.10;;;8.80;99.90;;;;;;5037140;28;20037;-82
2023/01/30 12:09:26;;;;;;;16.63;3.92;;;8.70;99.90;;;;;;5035849;28;20471;-82
2023/01/30 12:11:53;;;;;;;10.93;2.53;;;8.70;99.90;;;;;;5037059;28;20431;-80
2023/01/30 12:14:23;;;;;;;8.30;3.05;;;8.70;99.90;;;;;;5035583;28;20105;-82
2023/01/30 12:16:55;;;;;;;14.60;3.58;;;8.70;99.90;;;;;;5034601;28;20127;-83
2023/01/30 12:19:29;;;;;;;10.65;3.85;;;8.70;99.90;;;;;;5052638;28;20136;-84
2023/01/30 12:21:56;;;;;;;12.05;4.20;;;8.80;99.90;;;;;;5019493;28;20046;-83
2023/01/30 12:24:23;;;;;;;7.00;2.60;;;8.80;99.90;;;;;;5035036;28;20038;-81
2023/01/30 12:26:50;;;;;;;14.27;2.70;;;8.80;99.90;;;;;;5020106;28;20128;-83
2023/01/30 12:29:16;;;;;;;15.63;3.72;;;8.70;99.90;;;;;;5019066;28;20471;-83
2023/01/30 12:31:43;;;;;;;14.77;5.18;;;8.60;99.90;;;;;;5020136;28;20064;-86
2023/01/30 12:34:10;;;;;;;11.25;3.58;;;8.50;99.90;;;;;;5034515;28;20037;-82
2023/01/30 12:36:37;;;;;;;10.32;3.75;;;8.40;99.90;;;;;;5029967;28;20045;-80
2023/01/30 12:39:03;;;;;;;12.82;3.55;;;8.40;99.90;;;;;;5010061;28;20045;-80
2023/01/30 12:41:30;;;;;;;12.75;3.47;;;8.40;99.90;;;;;;5040679;28;20088;-81
2023/01/30 12:43:57;;;;;;;11.23;4.20;;;8.60;99.90;;;;;;5019689;28;20049;-82
2023/01/30 12:46:24;;;;;;;16.50;4.30;;;8.70;99.90;;;;;;5017735;28;20526;-82
2023/01/30 12:48:51;;;;;;;11.55;4.32;;;8.70;99.90;;;;;;5016538;28;20045;-81
2023/01/30 12:51:36;;;;;;;10.40;3.95;;;8.70;99.90;;;;;;5017110;28;20048;-83
2023/01/30 12:54:02;;;;;;;15.38;3.20;;;8.60;99.90;;;;;;4999944;28;20049;-82
2023/01/30 12:56:29;;;;;;;12.90;3.25;;;8.50;99.90;;;;;;5028592;28;20063;-84
2023/01/30 12:58:56;;;;;;;14.95;3.05;;;8.50;99.90;;;;;;5019581;28;20160;-84
2023/01/30 13:01:24;;;;;;;12.35;3.58;;;8.30;99.90;;;;;;5036094;28;20045;-82